Time;durP1;ratioP1;P1;durP2;ratioP2;P2;SDS_P1;SDS_P2;PMS_P1;PMS_P2;Temp;Humidity;BMP_temperature;BMP_pressure;BME280_temperature;BME280_humidity;BME280_pressure;Samples;Min_cycle;Max_cycle;Signal;HPM_P1;HPM_P2
2024/02/11 00:00:05;;;;;;;;;;;;;;;17.82;46.48;96779.19;10157429;28;957;-66
2024/02/11 00:05:00;;;;;;;;;;;;;;;17.83;46.66;96772.09;10157923;28;962;-66
2024/02/11 00:09:56;;;;;;;;;;;;;;;17.83;46.62;96766.81;10157450;28;1964;-66
2024/02/11 00:14:52;;;;;;;;;;;;;;;17.82;46.58;96771.28;10157842;28;821;-66
2024/02/11 00:19:48;;;;;;;;;;;;;;;17.84;46.44;96784.28;10164517;28;1057;-66
2024/02/11 00:24:44;;;;;;;;;;;;;;;17.84;46.47;96779.03;10163787;28;794;-66
2024/02/11 00:29:40;;;;;;;;;;;;;;;17.85;46.75;96764.88;10163642;28;1915;-66
2024/02/11 00:34:36;;;;;;;;;;;;;;;17.85;46.55;96762.25;10163475;28;798;-66
2024/02/11 00:39:31;;;;;;;;;;;;;;;17.86;46.53;96753.38;10163553;28;822;-66
2024/02/11 00:44:30;;;;;;;;;;;;;;;17.86;46.75;96756.81;10163769;28;860;-66
2024/02/11 00:49:26;;;;;;;;;;;;;;;17.86;46.58;96761.28;10163082;28;1953;-66
2024/02/11 00:54:22;;;;;;;;;;;;;;;17.85;46.64;96765.72;10162254;28;1020;-66
2024/02/11 00:59:18;;;;;;;;;;;;;;;17.87;46.65;96768.22;10162745;28;839;-66
2024/02/11 01:04:14;;;;;;;;;;;;;;;17.87;46.77;96776.97;10162596;28;814;-66
2024/02/11 01:09:10;;;;;;;;;;;;;;;17.87;46.71;96781.41;10162763;28;1902;-66
2024/02/11 01:14:07;;;;;;;;;;;;;;;17.86;46.65;96777.91;10162213;28;885;-66
2024/02/11 01:19:04;;;;;;;;;;;;;;;17.87;46.65;96784.03;10161458;28;1334;-66
2024/02/11 01:24:00;;;;;;;;;;;;;;;17.87;46.58;96789.31;10161891;28;897;-66
2024/02/11 01:28:56;;;;;;;;;;;;;;;17.87;46.65;96797.22;10162075;28;1906;-66
2024/02/11 01:33:51;;;;;;;;;;;;;;;17.87;46.74;96797.22;10162302;28;858;-66
2024/02/11 01:38:47;;;;;;;;;;;;;;;17.87;46.65;96792.75;10161439;28;787;-66
2024/02/11 01:43:43;;;;;;;;;;;;;;;17.87;46.61;96802.47;10161987;28;945;-66
2024/02/11 01:48:39;;;;;;;;;;;;;;;17.86;46.43;96787.63;10162290;28;1898;-66
2024/02/11 01:53:36;;;;;;;;;;;;;;;17.86;46.77;96792.88;10161062;28;757;-66
2024/02/11 01:58:32;;;;;;;;;;;;;;;17.86;46.53;96788.44;10161520;28;954;-66
2024/02/11 02:03:28;;;;;;;;;;;;;;;17.86;46.58;96798.16;10160786;28;751;-66
2024/02/11 02:08:25;;;;;;;;;;;;;;;17.87;46.63;96794.56;10161095;28;1946;-66
2024/02/11 02:13:21;;;;;;;;;;;;;;;17.85;46.55;96799.16;10160328;28;770;-66
2024/02/11 02:18:17;;;;;;;;;;;;;;;17.84;46.51;96797.47;10161616;28;874;-66
2024/02/11 02:23:12;;;;;;;;;;;;;;;17.85;46.73;96799.16;10160142;28;968;-66
2024/02/11 02:28:08;;;;;;;;;;;;;;;17.83;46.73;96785.28;10159767;28;1910;-66
2024/02/11 02:33:04;;;;;;;;;;;;;;;17.83;46.61;96788.72;10159919;28;810;-66
2024/02/11 02:38:00;;;;;;;;;;;;;;;17.83;46.55;96777.38;10158486;28;935;-66
2024/02/11 02:43:00;;;;;;;;;;;;;;;17.81;46.70;96789.84;10159736;28;838;-66
2024/02/11 02:47:56;;;;;;;;;;;;;;;17.81;46.53;96781.94;10159326;28;865;-66
2024/02/11 02:52:52;;;;;;;;;;;;;;;17.81;46.66;96790.66;10158618;28;1898;-66
2024/02/11 02:57:48;;;;;;;;;;;;;;;17.80;46.70;96785.56;10158554;28;885;-66
2024/02/11 03:02:44;;;;;;;;;;;;;;;17.80;46.76;96790.81;10158407;28;822;-66
2024/02/11 03:07:40;;;;;;;;;;;;;;;17.79;46.74;96782.09;10159397;28;811;-66
2024/02/11 03:12:36;;;;;;;;;;;;;;;17.79;46.51;96789.09;10158546;28;1899;-66
2024/02/11 03:17:32;;;;;;;;;;;;;;;17.77;46.70;96793.69;10158562;28;766;-66
2024/02/11 03:22:28;;;;;;;;;;;;;;;17.74;46.54;96781.63;10158518;28;920;-66
2024/02/11 03:27:24;;;;;;;;;;;;;;;17.72;46.67;96786.22;10158963;28;872;-66
2024/02/11 03:32:19;;;;;;;;;;;;;;;17.71;46.49;96784.53;10157305;28;1910;-66
2024/02/11 03:37:16;;;;;;;;;;;;;;;17.69;46.77;96794.41;10158188;28;1055;-66
2024/02/11 03:42:12;;;;;;;;;;;;;;;17.68;46.70;96793.56;10158175;28;941;-66
2024/02/11 03:47:08;;;;;;;;;;;;;;;17.66;46.54;96798.13;10157858;28;869;-66
2024/02/11 03:52:04;;;;;;;;;;;;;;;17.66;46.56;96798.13;10160912;28;1993;-66
2024/02/11 03:57:00;;;;;;;;;;;;;;;17.66;46.76;96803.41;10164725;28;961;-66
2024/02/11 04:02:04;;;;;;;;;;;;;;;17.66;46.60;96813.94;10164454;28;798;-66
2024/02/11 04:07:00;;;;;;;;;;;;;;;17.65;46.73;96812.25;10164353;28;830;-66
2024/02/11 04:11:56;;;;;;;;;;;;;;;17.66;46.63;96821.84;10164556;28;1898;-66
2024/02/11 04:16:55;;;;;;;;;;;;;;;17.66;46.67;96831.56;10164020;28;838;-66
2024/02/11 04:21:51;;;;;;;;;;;;;;;17.65;46.52;96833.31;10163884;28;866;-66
2024/02/11 04:26:51;;;;;;;;;;;;;;;17.65;46.67;96828.06;10163693;28;928;-66
2024/02/11 04:31:47;;;;;;;;;;;;;;;17.65;46.70;96825.41;10163613;28;1993;-66
2024/02/11 04:36:45;;;;;;;;;;;;;;;17.64;46.59;96815.88;10163969;28;866;-66
2024/02/11 04:41:41;;;;;;;;;;;;;;;17.65;46.61;96822.78;10163279;28;834;-66
2024/02/11 04:46:39;;;;;;;;;;;;;;;17.64;46.63;96823.78;10163129;28;841;-66
2024/02/11 04:51:35;;;;;;;;;;;;;;;17.66;46.56;96823.66;10163597;28;1959;-66
2024/02/11 04:56:31;;;;;;;;;;;;;;;17.67;46.68;96836.66;10162290;28;854;-66
2024/02/11 05:01:27;;;;;;;;;;;;;;;17.68;46.50;96835.72;10162232;28;779;-66
2024/02/11 05:06:24;;;;;;;;;;;;;;;17.70;46.68;96831.13;10162500;28;793;-66
2024/02/11 05:11:20;;;;;;;;;;;;;;;17.71;46.70;96827.53;10162336;28;1883;-66
2024/02/11 05:16:15;;;;;;;;;;;;;;;17.72;46.51;96842.34;10161546;28;766;-66
2024/02/11 05:21:13;;;;;;;;;;;;;;;17.73;46.53;96833.47;10162124;28;927;-66
2024/02/11 05:26:12;;;;;;;;;;;;;;;17.74;46.61;96845.69;10162540;28;886;-66
2024/02/11 05:31:08;;;;;;;;;;;;;;;17.77;46.63;96851.66;10162458;28;2000;-66
2024/02/11 05:36:08;;;;;;;;;;;;;;;17.77;46.60;96844.59;10162223;28;847;-66
2024/02/11 05:41:04;;;;;;;;;;;;;;;17.79;46.58;96849.69;10161455;28;813;-67
2024/02/11 05:45:59;;;;;;;;;;;;;;;17.82;46.56;96855.56;10161779;28;826;-66
2024/02/11 05:50:55;;;;;;;;;;;;;;;17.83;46.60;96851.13;10161118;28;1973;-66
2024/02/11 05:55:53;;;;;;;;;;;;;;;17.84;46.52;96847.53;10161351;28;781;-68
2024/02/11 06:00:48;;;;;;;;;;;;;;;17.86;46.53;96856.13;10160804;28;905;-70
2024/02/11 06:05:45;;;;;;;;;;;;;;;17.87;46.67;96855.19;10160721;28;863;-66
2024/02/11 06:10:41;;;;;;;;;;;;;;;17.87;46.72;96857.81;10160440;28;1902;-66
2024/02/11 06:15:37;;;;;;;;;;;;;;;17.90;46.65;96854.91;10159257;28;914;-66
2024/02/11 06:20:34;;;;;;;;;;;;;;;17.90;46.54;96868.06;10160339;28;816;-67
2024/02/11 06:25:30;;;;;;;;;;;;;;;17.91;46.64;96877.63;10160685;28;884;-66
2024/02/11 06:30:26;;;;;;;;;;;;;;;17.92;46.54;96893.31;10160755;28;1910;-68
2024/02/11 06:35:23;;;;;;;;;;;;;;;17.92;46.64;96905.63;10161052;28;818;-66
2024/02/11 06:40:23;;;;;;;;;;;;;;;17.92;46.67;96913.53;10160298;28;880;-66
2024/02/11 06:45:19;;;;;;;;;;;;;;;17.93;46.50;96910.78;10159747;28;864;-68
2024/02/11 06:50:15;;;;;;;;;;;;;;;17.94;46.65;96930.06;10159874;28;1898;-66
2024/02/11 06:55:13;;;;;;;;;;;;;;;17.92;46.62;96932.00;10159239;28;1107;-66
2024/02/11 07:00:09;;;;;;;;;;;;;;;17.91;46.62;96935.59;10159060;28;907;-65
2024/02/11 07:05:05;;;;;;;;;;;;;;;17.91;46.57;96943.50;10159581;28;810;-65
2024/02/11 07:10:01;;;;;;;;;;;;;;;17.91;46.30;96956.69;10158731;28;1894;-65
2024/02/11 07:14:57;;;;;;;;;;;;;;;17.91;46.48;96967.22;10158657;28;878;-65
2024/02/11 07:19:53;;;;;;;;;;;;;;;17.90;46.54;96976.09;10158677;28;786;-65
2024/02/11 07:24:49;;;;;;;;;;;;;;;17.90;46.40;96984.00;10159013;28;845;-66
2024/02/11 07:29:45;;;;;;;;;;;;;;;17.89;46.30;96998.13;10158447;28;1987;-68
2024/02/11 07:34:41;;;;;;;;;;;;;;;17.91;46.22;97025.19;10158220;28;816;-66
2024/02/11 07:39:38;;;;;;;;;;;;;;;17.92;46.36;97032.13;10158113;28;775;-67
2024/02/11 07:44:34;;;;;;;;;;;;;;;17.93;46.31;97045.19;10158220;28;794;-70
2024/02/11 07:49:30;;;;;;;;;;;;;;;17.95;46.28;97045.88;10157753;28;1956;-66
2024/02/11 07:54:26;;;;;;;;;;;;;;;17.95;46.12;97064.34;10159044;28;895;-66
2024/02/11 07:59:22;;;;;;;;;;;;;;;17.96;45.96;97089.72;10157557;28;813;-66
2024/02/11 08:04:18;;;;;;;;;;;;;;;17.99;45.90;97104.44;10157437;28;932;-66
2024/02/11 08:09:16;;;;;;;;;;;;;;;17.98;46.09;97107.22;10157795;28;1902;-66
2024/02/11 08:14:12;;;;;;;;;;;;;;;17.96;46.17;97105.53;10157768;28;841;-66
2024/02/11 08:19:08;;;;;;;;;;;;;;;18.01;45.80;97118.31;10157099;28;775;-66
2024/02/11 08:24:04;;;;;;;;;;;;;;;17.98;45.96;97126.50;10156936;28;813;-66
2024/02/11 08:29:01;;;;;;;;;;;;;;;17.99;46.30;97129.94;10156628;28;1983;-67
2024/02/11 08:33:57;;;;;;;;;;;;;;;17.94;46.27;97139.06;10157076;28;861;-67
2024/02/11 08:38:53;;;;;;;;;;;;;;;17.93;46.24;97142.69;10160062;28;940;-67
2024/02/11 08:43:49;;;;;;;;;;;;;;;17.92;46.22;97150.72;10163609;28;879;-67
2024/02/11 08:48:45;;;;;;;;;;;;;;;17.91;46.26;97162.22;10163409;28;1902;-67
2024/02/11 08:53:41;;;;;;;;;;;;;;;17.90;46.12;97166.66;10162329;28;997;-67
2024/02/11 08:58:37;;;;;;;;;;;;;;;17.90;46.04;97161.41;10162922;28;853;-67
2024/02/11 09:03:33;;;;;;;;;;;;;;;17.90;46.04;97176.38;10162738;28;833;-67
2024/02/11 09:08:29;;;;;;;;;;;;;;;17.88;46.09;97179.13;10161848;28;1899;-67
2024/02/11 09:13:25;;;;;;;;;;;;;;;17.87;45.94;97185.38;10162418;28;788;-67
2024/02/11 09:18:21;;;;;;;;;;;;;;;17.87;46.09;97180.13;10162269;28;786;-67
2024/02/11 09:23:17;;;;;;;;;;;;;;;17.87;45.81;97184.56;10162056;28;767;-67
2024/02/11 09:28:12;;;;;;;;;;;;;;;17.87;45.84;97187.19;10161965;28;1035;-67
2024/02/11 09:33:09;;;;;;;;;;;;;;;17.87;45.68;97189.81;10162290;28;1965;-68
2024/02/11 09:38:05;;;;;;;;;;;;;;;17.87;45.85;97203.00;10161453;28;801;-68
2024/02/11 09:43:01;;;;;;;;;;;;;;;17.86;45.77;97204.78;10161933;28;810;-67
2024/02/11 09:47:57;;;;;;;;;;;;;;;17.84;45.83;97206.72;10161695;28;855;-67
2024/02/11 09:52:53;;;;;;;;;;;;;;;17.85;45.78;97215.47;10160544;28;1907;-67
2024/02/11 09:57:49;;;;;;;;;;;;;;;17.84;45.78;97226.94;10161378;28;822;-67
2024/02/11 10:02:44;;;;;;;;;;;;;;;17.85;45.81;97223.38;10160693;28;909;-67
2024/02/11 10:07:41;;;;;;;;;;;;;;;17.84;45.80;97232.22;10161436;28;763;-67
2024/02/11 10:12:37;;;;;;;;;;;;;;;17.84;45.70;97240.97;10159645;28;1867;-67
2024/02/11 10:17:33;;;;;;;;;;;;;;;17.83;45.54;97246.38;10160744;28;771;-67
2024/02/11 10:22:29;;;;;;;;;;;;;;;17.84;45.58;97242.75;10160652;28;939;-67
2024/02/11 10:27:25;;;;;;;;;;;;;;;17.83;45.55;97257.72;10160906;28;882;-71
2024/02/11 10:32:21;;;;;;;;;;;;;;;17.84;45.80;97264.69;10160412;28;1910;-67
2024/02/11 10:37:18;;;;;;;;;;;;;;;17.84;45.76;97261.19;10160177;28;853;-67
2024/02/11 10:42:13;;;;;;;;;;;;;;;17.84;45.72;97259.44;10159449;28;822;-67
2024/02/11 10:47:09;;;;;;;;;;;;;;;17.83;45.92;97257.72;10159297;28;834;-67
2024/02/11 10:52:05;;;;;;;;;;;;;;;17.83;45.66;97262.19;10159184;28;1894;-67
2024/02/11 10:57:05;;;;;;;;;;;;;;;17.84;45.69;97259.44;10159082;28;798;-67
2024/02/11 11:02:01;;;;;;;;;;;;;;;17.84;45.77;97269.09;10158914;28;869;-67
2024/02/11 11:06:57;;;;;;;;;;;;;;;17.83;45.87;97267.44;10158761;28;819;-67
2024/02/11 11:11:53;;;;;;;;;;;;;;;17.84;45.82;97269.09;10158503;28;1957;-67
2024/02/11 11:16:49;;;;;;;;;;;;;;;17.84;45.80;97269.09;10159211;28;879;-67
2024/02/11 11:21:45;;;;;;;;;;;;;;;17.85;45.71;97266.34;10159319;28;818;-67
2024/02/11 11:26:41;;;;;;;;;;;;;;;17.88;45.63;97257.34;10158362;28;877;-67
2024/02/11 11:31:39;;;;;;;;;;;;;;;17.87;45.62;97264.44;10157532;28;1980;-67
2024/02/11 11:36:36;;;;;;;;;;;;;;;17.87;45.66;97263.59;10158498;28;864;-68
2024/02/11 11:41:33;;;;;;;;;;;;;;;17.87;45.69;97258.34;10157756;28;925;-67
2024/02/11 11:46:30;;;;;;;;;;;;;;;17.87;45.74;97255.69;10157695;28;968;-66
2024/02/11 11:51:30;;;;;;;;;;;;;;;17.86;45.60;97265.38;10157459;28;1953;-67
2024/02/11 11:56:26;;;;;;;;;;;;;;;17.84;45.79;97259.44;10157666;28;831;-67
2024/02/11 12:01:23;;;;;;;;;;;;;;;17.86;45.64;97272.47;10157343;28;847;-67
2024/02/11 12:06:22;;;;;;;;;;;;;;;17.85;45.71;97260.25;10156599;28;882;-67
2024/02/11 12:11:18;;;;;;;;;;;;;;;17.87;45.58;97274.16;10157947;28;1955;-67
2024/02/11 12:16:16;;;;;;;;;;;;;;;17.87;45.56;97274.16;10164012;28;934;-67
2024/02/11 12:21:13;;;;;;;;;;;;;;;17.87;45.44;97276.78;10163761;28;1072;-67
2024/02/11 12:26:09;;;;;;;;;;;;;;;17.87;45.61;97274.16;10163585;28;961;-67
2024/02/11 12:31:05;;;;;;;;;;;;;;;17.87;45.64;97263.59;10162633;28;1914;-67
2024/02/11 12:36:01;;;;;;;;;;;;;;;17.88;45.54;97262.63;10162812;28;936;-67
2024/02/11 12:40:57;;;;;;;;;;;;;;;17.88;45.53;97254.72;10163327;28;843;-67
2024/02/11 12:45:52;;;;;;;;;;;;;;;17.89;45.31;97264.28;10163729;28;855;-67
2024/02/11 12:50:49;;;;;;;;;;;;;;;17.94;45.41;97264.75;10163625;28;1898;-66
2024/02/11 12:55:45;;;;;;;;;;;;;;;17.99;45.55;97262.56;10162767;28;880;-66
2024/02/11 13:00:40;;;;;;;;;;;;;;;18.00;45.65;97271.31;10163228;28;917;-66
2024/02/11 13:05:36;;;;;;;;;;;;;;;18.01;45.52;97273.81;10162486;28;873;-66
2024/02/11 13:10:32;;;;;;;;;;;;;;;18.03;45.87;97277.16;10162522;28;1894;-66
2024/02/11 13:15:28;;;;;;;;;;;;;;;18.06;45.81;97278.72;10162201;28;908;-66
2024/02/11 13:20:24;;;;;;;;;;;;;;;18.07;45.71;97285.66;10162166;28;783;-66
2024/02/11 13:25:22;;;;;;;;;;;;;;;18.07;45.52;97278.56;10161553;28;900;-66
2024/02/11 13:30:18;;;;;;;;;;;;;;;18.08;45.85;97277.63;10161435;28;1977;-66
2024/02/11 13:35:14;;;;;;;;;;;;;;;18.09;45.89;97279.28;10161031;28;897;-66
2024/02/11 13:40:11;;;;;;;;;;;;;;;18.23;45.73;97277.28;10162080;28;877;-66
2024/02/11 13:45:08;;;;;;;;;;;;;;;18.27;45.43;97281.34;10162294;28;806;-66
2024/02/11 13:50:06;;;;;;;;;;;;;;;18.28;45.39;97285.66;10161070;28;1890;-66
2024/02/11 13:55:03;;;;;;;;;;;;;;;18.22;45.36;97288.81;10160858;28;878;-66
2024/02/11 13:59:59;;;;;;;;;;;;;;;18.21;45.62;97280.06;10161314;28;861;-67
2024/02/11 14:04:56;;;;;;;;;;;;;;;18.33;45.54;97291.38;10160172;28;890;-66
2024/02/11 14:09:53;;;;;;;;;;;;;;;18.27;45.67;97287.44;10159801;28;1890;-66
2024/02/11 14:14:49;;;;;;;;;;;;;;;18.23;45.80;97298.38;10161132;28;837;-66
2024/02/11 14:19:44;;;;;;;;;;;;;;;18.20;45.55;97296.84;10160346;28;1165;-66
2024/02/11 14:24:40;;;;;;;;;;;;;;;18.20;45.75;97302.09;10160861;28;917;-66
2024/02/11 14:29:38;;;;;;;;;;;;;;;18.21;45.82;97308.22;10160448;28;1970;-66
2024/02/11 14:34:35;;;;;;;;;;;;;;;18.21;45.74;97308.22;10159126;28;876;-66
2024/02/11 14:39:31;;;;;;;;;;;;;;;18.18;45.76;97318.06;10160524;28;854;-66
2024/02/11 14:44:26;;;;;;;;;;;;;;;18.18;45.54;97326.00;10160255;28;865;-66
2024/02/11 14:49:24;;;;;;;;;;;;;;;18.23;45.12;97327.38;10160117;28;2008;-67
2024/02/11 14:54:20;;;;;;;;;;;;;;;18.15;45.88;97326.22;10160106;28;842;-73
2024/02/11 14:59:16;;;;;;;;;;;;;;;18.18;45.77;97327.75;10159182;28;834;-66
2024/02/11 15:04:12;;;;;;;;;;;;;;;18.39;45.55;97331.25;10159176;28;1055;-66
2024/02/11 15:09:08;;;;;;;;;;;;;;;18.42;45.37;97334.59;10159415;28;1891;-67
2024/02/11 15:14:04;;;;;;;;;;;;;;;18.34;45.88;97330.81;10159214;28;889;-66
2024/02/11 15:19:00;;;;;;;;;;;;;;;18.37;45.57;97340.25;10158065;28;853;-67
2024/02/11 15:23:56;;;;;;;;;;;;;;;18.34;45.65;97338.72;10158559;28;773;-66
2024/02/11 15:28:52;;;;;;;;;;;;;;;18.32;45.69;97339.81;10158154;28;1982;-66
2024/02/11 15:33:48;;;;;;;;;;;;;;;18.29;45.63;97345.34;10157703;28;869;-67
2024/02/11 15:38:43;;;;;;;;;;;;;;;18.30;45.95;97352.28;10159559;28;885;-67
2024/02/11 15:43:39;;;;;;;;;;;;;;;18.31;45.91;97356.59;10157982;28;865;-68
2024/02/11 15:48:35;;;;;;;;;;;;;;;18.31;45.77;97353.94;10162799;28;1933;-66
2024/02/11 15:53:31;;;;;;;;;;;;;;;18.31;45.81;97359.22;10164874;28;850;-66
2024/02/11 15:58:27;;;;;;;;;;;;;;;18.30;45.86;97366.31;10164759;28;1532;-66
2024/02/11 16:03:24;;;;;;;;;;;;;;;18.30;46.05;97370.75;10164869;28;905;-66
2024/02/11 16:08:20;;;;;;;;;;;;;;;18.28;45.78;97373.50;10164387;28;857;-66
2024/02/11 16:13:15;;;;;;;;;;;;;;;18.30;45.73;97376.03;10164826;28;1906;-67
2024/02/11 16:18:11;;;;;;;;;;;;;;;18.27;45.83;97384.19;10164816;28;830;-66
2024/02/11 16:23:07;;;;;;;;;;;;;;;18.28;45.91;97391.13;10164655;28;871;-66
2024/02/11 16:28:05;;;;;;;;;;;;;;;18.27;45.99;97403.47;10163894;28;1287;-65
2024/02/11 16:33:01;;;;;;;;;;;;;;;18.27;46.08;97410.56;10163791;28;1975;-66
2024/02/11 16:37:57;;;;;;;;;;;;;;;18.24;46.08;97409.00;10163590;28;774;-66
2024/02/11 16:42:52;;;;;;;;;;;;;;;18.27;46.22;97408.75;10164604;28;841;-66
2024/02/11 16:47:48;;;;;;;;;;;;;;;18.27;46.09;97421.09;10163956;28;842;-66
2024/02/11 16:52:44;;;;;;;;;;;;;;;18.28;46.16;97431.50;10163092;28;1902;-66
2024/02/11 16:57:40;;;;;;;;;;;;;;;18.26;46.28;97435.22;10162890;28;865;-66
2024/02/11 17:02:36;;;;;;;;;;;;;;;18.27;46.27;97436.94;10162718;28;914;-66
2024/02/11 17:07:32;;;;;;;;;;;;;;;18.26;46.13;97435.22;10163040;28;833;-66
2024/02/11 17:12:29;;;;;;;;;;;;;;;18.25;46.09;97447.59;10161513;28;1948;-67
2024/02/11 17:17:25;;;;;;;;;;;;;;;18.27;45.86;97448.31;10162661;28;925;-66
2024/02/11 17:22:22;;;;;;;;;;;;;;;18.27;46.34;97450.94;10162762;28;946;-66
2024/02/11 17:27:18;;;;;;;;;;;;;;;18.28;46.25;97454.41;10162611;28;831;-66
2024/02/11 17:32:14;;;;;;;;;;;;;;;18.28;46.26;97457.88;10160943;28;1914;-66
2024/02/11 17:37:10;;;;;;;;;;;;;;;18.29;46.27;97474.56;10161544;28;851;-67
2024/02/11 17:42:06;;;;;;;;;;;;;;;18.29;46.32;97480.66;10161377;28;776;-66
2024/02/11 17:47:02;;;;;;;;;;;;;;;18.30;46.43;97482.34;10161185;28;848;-66
2024/02/11 17:51:58;;;;;;;;;;;;;;;18.30;46.40;97492.06;10161050;28;1961;-66
2024/02/11 17:56:54;;;;;;;;;;;;;;;18.30;46.23;97497.31;10160929;28;806;-66
2024/02/11 18:01:51;;;;;;;;;;;;;;;18.30;46.48;97502.59;10161288;28;829;-66
2024/02/11 18:06:47;;;;;;;;;;;;;;;18.31;46.49;97499.00;10160547;28;917;-66
2024/02/11 18:11:44;;;;;;;;;;;;;;;18.30;46.55;97502.59;10159249;28;1915;-66
2024/02/11 18:16:40;;;;;;;;;;;;;;;18.30;46.34;97513.97;10160158;28;849;-66
2024/02/11 18:21:37;;;;;;;;;;;;;;;18.30;46.45;97519.25;10160143;28;890;-66
2024/02/11 18:26:33;;;;;;;;;;;;;;;18.31;46.56;97520.09;10159998;28;801;-66
2024/02/11 18:31:28;;;;;;;;;;;;;;;18.30;46.34;97521.88;10159265;28;1990;-66
2024/02/11 18:36:24;;;;;;;;;;;;;;;18.32;46.21;97527.06;10160259;28;869;-66
2024/02/11 18:41:21;;;;;;;;;;;;;;;18.31;46.12;97528.84;10160160;28;766;-66
2024/02/11 18:46:17;;;;;;;;;;;;;;;18.31;46.24;97530.63;10159991;28;771;-66
2024/02/11 18:51:12;;;;;;;;;;;;;;;18.32;46.32;97533.16;10159178;28;1894;-66
2024/02/11 18:56:09;;;;;;;;;;;;;;;18.33;46.29;97544.53;10159366;28;933;-66
2024/02/11 19:01:05;;;;;;;;;;;;;;;18.32;46.30;97546.34;10159506;28;861;-66
2024/02/11 19:06:01;;;;;;;;;;;;;;;18.33;46.32;97553.28;10159043;28;857;-66
2024/02/11 19:10:57;;;;;;;;;;;;;;;18.35;46.15;97550.53;10158987;28;1898;-66
2024/02/11 19:15:55;;;;;;;;;;;;;;;18.34;46.22;97551.50;10159205;28;763;-66
2024/02/11 19:20:52;;;;;;;;;;;;;;;18.36;46.28;97560.13;10157504;28;1326;-66
2024/02/11 19:25:48;;;;;;;;;;;;;;;18.34;46.33;97552.34;10158878;28;968;-66
2024/02/11 19:30:44;;;;;;;;;;;;;;;18.34;46.32;97556.78;10158630;28;1979;-66
2024/02/11 19:35:41;;;;;;;;;;;;;;;18.35;46.20;97569.00;10158078;28;1100;-66
2024/02/11 19:40:37;;;;;;;;;;;;;;;18.36;46.19;97565.38;10157862;28;852;-66
2024/02/11 19:45:35;;;;;;;;;;;;;;;18.35;46.30;97576.91;10157748;28;850;-66
2024/02/11 19:50:30;;;;;;;;;;;;;;;18.36;46.26;97589.13;10157526;28;1911;-66
2024/02/11 19:55:29;;;;;;;;;;;;;;;18.37;46.26;97588.19;10157609;28;917;-66
2024/02/11 20:00:25;;;;;;;;;;;;;;;18.36;46.14;97587.31;10157370;28;953;-66
2024/02/11 20:05:21;;;;;;;;;;;;;;;18.37;46.27;97585.53;10157434;28;772;-66
2024/02/11 20:10:17;;;;;;;;;;;;;;;18.37;46.26;97590.81;10156575;28;1965;-66
2024/02/11 20:15:13;;;;;;;;;;;;;;;18.37;46.34;97591.66;10157146;28;943;-66
2024/02/11 20:20:12;;;;;;;;;;;;;;;18.38;46.14;97595.13;10156949;28;989;-66
2024/02/11 20:25:09;;;;;;;;;;;;;;;18.39;46.27;97602.06;10157891;28;959;-66
2024/02/11 20:30:05;;;;;;;;;;;;;;;18.38;46.25;97600.41;10156943;28;1922;-66
2024/02/11 20:35:01;;;;;;;;;;;;;;;18.36;46.33;97607.59;10161888;28;855;-66
2024/02/11 20:39:57;;;;;;;;;;;;;;;18.36;46.20;97607.59;10163323;28;937;-66
2024/02/11 20:44:53;;;;;;;;;;;;;;;18.36;46.41;97615.50;10164352;28;897;-66
2024/02/11 20:49:50;;;;;;;;;;;;;;;18.35;46.17;97627.03;10162979;28;1894;-66
2024/02/11 20:54:47;;;;;;;;;;;;;;;18.33;46.30;97623.66;10162833;28;984;-66
2024/02/11 20:59:43;;;;;;;;;;;;;;;18.32;46.26;97632.53;10163363;28;788;-66
2024/02/11 21:04:39;;;;;;;;;;;;;;;18.31;46.27;97637.00;10163315;28;905;-66
2024/02/11 21:09:35;;;;;;;;;;;;;;;18.30;46.28;97637.09;10162501;28;1898;-66
2024/02/11 21:14:31;;;;;;;;;;;;;;;18.30;46.25;97655.56;10162915;28;959;-66
2024/02/11 21:19:27;;;;;;;;;;;;;;;18.28;46.39;97653.03;10162079;28;834;-66
2024/02/11 21:24:22;;;;;;;;;;;;;;;18.28;46.15;97654.84;10162693;28;918;-66
2024/02/11 21:29:18;;;;;;;;;;;;;;;18.27;46.08;97656.63;10162136;28;1906;-66
2024/02/11 21:34:15;;;;;;;;;;;;;;;18.27;46.14;97661.06;10162272;28;890;-66
2024/02/11 21:39:13;;;;;;;;;;;;;;;18.26;46.23;97659.38;10161586;28;885;-66
2024/02/11 21:44:12;;;;;;;;;;;;;;;18.25;46.21;97663.00;10161921;28;795;-66
2024/02/11 21:49:09;;;;;;;;;;;;;;;18.24;46.26;97671.88;10161326;28;1902;-66
2024/02/11 21:54:05;;;;;;;;;;;;;;;18.20;46.33;97665.16;10161925;28;885;-66
2024/02/11 21:59:01;;;;;;;;;;;;;;;18.20;46.23;97665.16;10161593;28;848;-66
2024/02/11 22:03:57;;;;;;;;;;;;;;;18.17;46.13;97674.97;10161851;28;774;-66
2024/02/11 22:08:53;;;;;;;;;;;;;;;18.16;46.36;97675.09;10161409;28;1894;-66
2024/02/11 22:13:49;;;;;;;;;;;;;;;18.14;46.03;97682.28;10161929;28;972;-66
2024/02/11 22:18:47;;;;;;;;;;;;;;;18.12;46.18;97678.91;10161123;28;798;-66
2024/02/11 22:23:44;;;;;;;;;;;;;;;18.11;46.11;97679.88;10160348;28;957;-66
2024/02/11 22:28:40;;;;;;;;;;;;;;;18.09;46.06;97682.63;10160164;28;1123;-66
2024/02/11 22:33:36;;;;;;;;;;;;;;;18.08;46.17;97693.31;10159979;28;1918;-66
2024/02/11 22:38:32;;;;;;;;;;;;;;;18.06;46.07;97690.78;10159962;28;876;-66
2024/02/11 22:43:28;;;;;;;;;;;;;;;18.05;46.17;97693.53;10159778;28;798;-66
2024/02/11 22:48:24;;;;;;;;;;;;;;;18.03;46.34;97695.47;10160446;28;860;-66
2024/02/11 22:53:19;;;;;;;;;;;;;;;18.01;46.18;97698.19;10159469;28;1895;-66
2024/02/11 22:58:15;;;;;;;;;;;;;;;17.99;46.30;97705.38;10158632;28;797;-66
2024/02/11 23:03:12;;;;;;;;;;;;;;;17.99;46.31;97707.19;10159266;28;819;-66
2024/02/11 23:08:09;;;;;;;;;;;;;;;17.96;46.20;97719.63;10159994;28;790;-66
2024/02/11 23:13:05;;;;;;;;;;;;;;;17.95;46.31;97717.13;10158866;28;1894;-66
2024/02/11 23:18:03;;;;;;;;;;;;;;;17.93;46.33;97719.88;10159356;28;900;-66
2024/02/11 23:23:00;;;;;;;;;;;;;;;17.94;46.17;97728.63;10158027;28;1734;-66
2024/02/11 23:27:55;;;;;;;;;;;;;;;17.91;46.35;97729.69;10157625;28;1396;-65
2024/02/11 23:32:51;;;;;;;;;;;;;;;17.90;46.28;97738.56;10157975;28;1910;-66
2024/02/11 23:37:49;;;;;;;;;;;;;;;17.88;46.26;97737.00;10158272;28;776;-66
2024/02/11 23:42:45;;;;;;;;;;;;;;;17.87;46.29;97741.44;10158084;28;833;-66
2024/02/11 23:47:41;;;;;;;;;;;;;;;17.87;46.11;97745.88;10158934;28;842;-66
2024/02/11 23:52:37;;;;;;;;;;;;;;;17.87;46.06;97751.16;10157823;28;1894;-66
2024/02/11 23:57:37;;;;;;;;;;;;;;;17.86;46.29;97752.09;10158417;28;980;-66
